sensor_id;sensor_type;location;lat;lon;timestamp;P1;durP1;ratioP1;P2;durP2;ratioP2
75912;SDS011;64592;52.168;21.040;2023-02-21T00:02:11;3.53;;;1.50;;
75912;SDS011;64592;52.168;21.040;2023-02-21T00:12:51;2.47;;;1.85;;
75912;SDS011;64592;52.168;21.040;2023-02-21T00:18:10;2.92;;;1.60;;
75912;SDS011;64592;52.168;21.040;2023-02-21T00:23:33;4.05;;;1.50;;
75912;SDS011;64592;52.168;21.040;2023-02-21T00:28:52;3.28;;;1.40;;
75912;SDS011;64592;52.168;21.040;2023-02-21T00:34:11;3.25;;;1.88;;
75912;SDS011;64592;52.168;21.040;2023-02-21T00:39:31;5.68;;;1.48;;
75912;SDS011;64592;52.168;21.040;2023-02-21T00:44:51;3.83;;;1.42;;
75912;SDS011;64592;52.168;21.040;2023-02-21T00:50:09;3.08;;;1.75;;
75912;SDS011;64592;52.168;21.040;2023-02-21T00:55:30;2.20;;;1.50;;
75912;SDS011;64592;52.168;21.040;2023-02-21T01:00:49;2.78;;;1.55;;
75912;SDS011;64592;52.168;21.040;2023-02-21T01:06:09;2.08;;;1.42;;
75912;SDS011;64592;52.168;21.040;2023-02-21T01:11:31;2.53;;;1.38;;
75912;SDS011;64592;52.168;21.040;2023-02-21T01:16:51;2.30;;;1.42;;
75912;SDS011;64592;52.168;21.040;2023-02-21T01:22:10;1.55;;;1.15;;
75912;SDS011;64592;52.168;21.040;2023-02-21T01:27:31;2.85;;;1.25;;
75912;SDS011;64592;52.168;21.040;2023-02-21T01:32:50;2.08;;;1.30;;
75912;SDS011;64592;52.168;21.040;2023-02-21T01:38:09;3.15;;;1.90;;
75912;SDS011;64592;52.168;21.040;2023-02-21T01:43:29;3.05;;;1.42;;
75912;SDS011;64592;52.168;21.040;2023-02-21T01:48:49;1.50;;;1.30;;
75912;SDS011;64592;52.168;21.040;2023-02-21T01:54:11;3.83;;;1.75;;
75912;SDS011;64592;52.168;21.040;2023-02-21T01:59:32;1.52;;;1.08;;
75912;SDS011;64592;52.168;21.040;2023-02-21T02:04:52;2.03;;;1.40;;
75912;SDS011;64592;52.168;21.040;2023-02-21T02:10:13;1.70;;;1.23;;
75912;SDS011;64592;52.168;21.040;2023-02-21T02:21:04;2.03;;;1.38;;
75912;SDS011;64592;52.168;21.040;2023-02-21T02:26:29;4.20;;;1.88;;
75912;SDS011;64592;52.168;21.040;2023-02-21T02:31:56;2.58;;;1.40;;
75912;SDS011;64592;52.168;21.040;2023-02-21T02:37:15;2.20;;;1.13;;
75912;SDS011;64592;52.168;21.040;2023-02-21T02:42:25;2.45;;;1.30;;
75912;SDS011;64592;52.168;21.040;2023-02-21T02:47:44;4.15;;;1.67;;
75912;SDS011;64592;52.168;21.040;2023-02-21T02:52:59;3.45;;;1.20;;
75912;SDS011;64592;52.168;21.040;2023-02-21T02:58:02;5.30;;;1.83;;
75912;SDS011;64592;52.168;21.040;2023-02-21T03:03:09;2.20;;;1.08;;
75912;SDS011;64592;52.168;21.040;2023-02-21T03:08:35;2.05;;;0.90;;
75912;SDS011;64592;52.168;21.040;2023-02-21T03:13:46;4.57;;;1.35;;
75912;SDS011;64592;52.168;21.040;2023-02-21T03:18:49;2.40;;;0.90;;
75912;SDS011;64592;52.168;21.040;2023-02-21T03:23:59;2.20;;;1.30;;
75912;SDS011;64592;52.168;21.040;2023-02-21T03:29:03;2.38;;;1.17;;
75912;SDS011;64592;52.168;21.040;2023-02-21T03:34:05;5.60;;;1.55;;
75912;SDS011;64592;52.168;21.040;2023-02-21T03:39:08;2.08;;;1.40;;
75912;SDS011;64592;52.168;21.040;2023-02-21T03:44:09;3.83;;;1.27;;
75912;SDS011;64592;52.168;21.040;2023-02-21T03:49:11;3.95;;;1.27;;
75912;SDS011;64592;52.168;21.040;2023-02-21T03:54:14;6.35;;;1.20;;
75912;SDS011;64592;52.168;21.040;2023-02-21T03:59:16;5.65;;;1.63;;
75912;SDS011;64592;52.168;21.040;2023-02-21T04:04:18;4.47;;;1.48;;
75912;SDS011;64592;52.168;21.040;2023-02-21T04:09:21;3.38;;;1.13;;
75912;SDS011;64592;52.168;21.040;2023-02-21T04:14:22;5.32;;;1.67;;
75912;SDS011;64592;52.168;21.040;2023-02-21T04:19:24;5.75;;;1.60;;
75912;SDS011;64592;52.168;21.040;2023-02-21T04:24:27;8.25;;;2.22;;
75912;SDS011;64592;52.168;21.040;2023-02-21T04:29:29;8.07;;;1.25;;
75912;SDS011;64592;52.168;21.040;2023-02-21T04:34:31;5.40;;;1.20;;
75912;SDS011;64592;52.168;21.040;2023-02-21T04:39:34;5.80;;;1.35;;
75912;SDS011;64592;52.168;21.040;2023-02-21T04:44:36;7.35;;;2.20;;
75912;SDS011;64592;52.168;21.040;2023-02-21T04:49:38;7.30;;;2.03;;
75912;SDS011;64592;52.168;21.040;2023-02-21T04:54:41;8.45;;;2.17;;
75912;SDS011;64592;52.168;21.040;2023-02-21T04:59:43;5.43;;;1.85;;
75912;SDS011;64592;52.168;21.040;2023-02-21T05:04:45;6.97;;;1.80;;
75912;SDS011;64592;52.168;21.040;2023-02-21T05:09:48;5.35;;;1.45;;
75912;SDS011;64592;52.168;21.040;2023-02-21T05:14:50;5.13;;;1.70;;
75912;SDS011;64592;52.168;21.040;2023-02-21T05:19:51;4.75;;;2.03;;
75912;SDS011;64592;52.168;21.040;2023-02-21T05:24:55;6.53;;;2.00;;
75912;SDS011;64592;52.168;21.040;2023-02-21T05:29:57;7.10;;;1.50;;
75912;SDS011;64592;52.168;21.040;2023-02-21T05:34:58;5.65;;;1.50;;
75912;SDS011;64592;52.168;21.040;2023-02-21T05:40:02;6.05;;;2.50;;
75912;SDS011;64592;52.168;21.040;2023-02-21T05:45:05;7.18;;;2.28;;
75912;SDS011;64592;52.168;21.040;2023-02-21T05:50:08;4.80;;;1.33;;
75912;SDS011;64592;52.168;21.040;2023-02-21T05:55:11;5.55;;;1.75;;
75912;SDS011;64592;52.168;21.040;2023-02-21T06:00:14;6.07;;;1.80;;
75912;SDS011;64592;52.168;21.040;2023-02-21T06:05:17;7.82;;;1.90;;
75912;SDS011;64592;52.168;21.040;2023-02-21T06:10:21;6.55;;;1.58;;
75912;SDS011;64592;52.168;21.040;2023-02-21T06:15:23;4.32;;;2.05;;
75912;SDS011;64592;52.168;21.040;2023-02-21T06:20:24;8.75;;;2.20;;
75912;SDS011;64592;52.168;21.040;2023-02-21T06:25:27;7.25;;;1.95;;
75912;SDS011;64592;52.168;21.040;2023-02-21T06:30:29;9.65;;;2.65;;
75912;SDS011;64592;52.168;21.040;2023-02-21T06:35:31;4.28;;;1.95;;
75912;SDS011;64592;52.168;21.040;2023-02-21T06:40:34;6.55;;;1.90;;
75912;SDS011;64592;52.168;21.040;2023-02-21T06:45:36;7.90;;;1.27;;
75912;SDS011;64592;52.168;21.040;2023-02-21T06:50:37;6.78;;;2.13;;
75912;SDS011;64592;52.168;21.040;2023-02-21T06:55:40;6.20;;;2.33;;
75912;SDS011;64592;52.168;21.040;2023-02-21T07:00:42;4.60;;;2.33;;
75912;SDS011;64592;52.168;21.040;2023-02-21T07:05:44;5.15;;;1.88;;
75912;SDS011;64592;52.168;21.040;2023-02-21T07:10:47;8.23;;;2.22;;
75912;SDS011;64592;52.168;21.040;2023-02-21T07:15:49;6.40;;;1.90;;
75912;SDS011;64592;52.168;21.040;2023-02-21T07:20:51;6.70;;;2.20;;
75912;SDS011;64592;52.168;21.040;2023-02-21T07:25:54;6.65;;;2.17;;
75912;SDS011;64592;52.168;21.040;2023-02-21T07:30:55;6.03;;;1.90;;
75912;SDS011;64592;52.168;21.040;2023-02-21T07:35:57;7.65;;;2.05;;
75912;SDS011;64592;52.168;21.040;2023-02-21T07:41:01;9.02;;;2.15;;
75912;SDS011;64592;52.168;21.040;2023-02-21T07:46:03;6.32;;;1.98;;
75912;SDS011;64592;52.168;21.040;2023-02-21T07:51:09;10.07;;;1.90;;
75912;SDS011;64592;52.168;21.040;2023-02-21T07:56:12;6.43;;;1.58;;
75912;SDS011;64592;52.168;21.040;2023-02-21T08:01:14;10.82;;;2.40;;
75912;SDS011;64592;52.168;21.040;2023-02-21T08:06:16;11.55;;;2.08;;
75912;SDS011;64592;52.168;21.040;2023-02-21T08:11:19;5.18;;;2.00;;
75912;SDS011;64592;52.168;21.040;2023-02-21T08:16:21;5.63;;;1.88;;
75912;SDS011;64592;52.168;21.040;2023-02-21T08:21:24;7.88;;;2.30;;
75912;SDS011;64592;52.168;21.040;2023-02-21T08:26:27;13.30;;;2.83;;
75912;SDS011;64592;52.168;21.040;2023-02-21T08:31:28;8.57;;;2.38;;
75912;SDS011;64592;52.168;21.040;2023-02-21T08:36:31;7.65;;;2.13;;
75912;SDS011;64592;52.168;21.040;2023-02-21T08:41:36;6.22;;;1.90;;
75912;SDS011;64592;52.168;21.040;2023-02-21T08:46:38;10.15;;;2.30;;
75912;SDS011;64592;52.168;21.040;2023-02-21T08:51:40;10.88;;;2.55;;
75912;SDS011;64592;52.168;21.040;2023-02-21T08:56:43;9.95;;;2.17;;
75912;SDS011;64592;52.168;21.040;2023-02-21T09:01:45;10.68;;;2.78;;
75912;SDS011;64592;52.168;21.040;2023-02-21T09:06:49;5.20;;;2.00;;
75912;SDS011;64592;52.168;21.040;2023-02-21T09:11:52;8.32;;;2.30;;
75912;SDS011;64592;52.168;21.040;2023-02-21T09:16:54;7.18;;;2.10;;
75912;SDS011;64592;52.168;21.040;2023-02-21T09:21:55;13.38;;;2.95;;
75912;SDS011;64592;52.168;21.040;2023-02-21T09:26:59;11.35;;;2.45;;
75912;SDS011;64592;52.168;21.040;2023-02-21T09:32:02;5.43;;;2.33;;
75912;SDS011;64592;52.168;21.040;2023-02-21T09:37:04;10.45;;;2.70;;
75912;SDS011;64592;52.168;21.040;2023-02-21T09:42:08;7.53;;;2.22;;
75912;SDS011;64592;52.168;21.040;2023-02-21T09:47:15;5.35;;;1.90;;
75912;SDS011;64592;52.168;21.040;2023-02-21T09:52:24;7.50;;;2.50;;
75912;SDS011;64592;52.168;21.040;2023-02-21T09:57:33;10.15;;;3.33;;
75912;SDS011;64592;52.168;21.040;2023-02-21T10:02:38;7.40;;;2.08;;
75912;SDS011;64592;52.168;21.040;2023-02-21T10:07:46;7.25;;;2.58;;
75912;SDS011;64592;52.168;21.040;2023-02-21T10:13:02;4.05;;;1.85;;
75912;SDS011;64592;52.168;21.040;2023-02-21T10:18:14;9.57;;;2.35;;
75912;SDS011;64592;52.168;21.040;2023-02-21T10:23:27;9.43;;;2.60;;
75912;SDS011;64592;52.168;21.040;2023-02-21T10:28:33;6.63;;;2.10;;
75912;SDS011;64592;52.168;21.040;2023-02-21T10:33:36;7.35;;;2.28;;
75912;SDS011;64592;52.168;21.040;2023-02-21T10:38:40;7.95;;;2.30;;
75912;SDS011;64592;52.168;21.040;2023-02-21T10:43:49;6.78;;;2.63;;
75912;SDS011;64592;52.168;21.040;2023-02-21T10:49:17;6.65;;;2.55;;
75912;SDS011;64592;52.168;21.040;2023-02-21T10:54:28;5.80;;;2.13;;
75912;SDS011;64592;52.168;21.040;2023-02-21T10:59:31;7.93;;;2.45;;
75912;SDS011;64592;52.168;21.040;2023-02-21T11:04:35;7.78;;;2.13;;
75912;SDS011;64592;52.168;21.040;2023-02-21T11:09:40;5.97;;;3.45;;
75912;SDS011;64592;52.168;21.040;2023-02-21T11:14:45;9.90;;;2.25;;
75912;SDS011;64592;52.168;21.040;2023-02-21T11:20:14;3.85;;;1.85;;
75912;SDS011;64592;52.168;21.040;2023-02-21T11:30:25;9.32;;;2.38;;
75912;SDS011;64592;52.168;21.040;2023-02-21T11:35:28;6.72;;;2.47;;
75912;SDS011;64592;52.168;21.040;2023-02-21T11:40:39;6.30;;;2.05;;
75912;SDS011;64592;52.168;21.040;2023-02-21T11:45:46;8.25;;;2.35;;
75912;SDS011;64592;52.168;21.040;2023-02-21T11:51:00;9.57;;;2.50;;
75912;SDS011;64592;52.168;21.040;2023-02-21T11:56:10;5.78;;;2.10;;
75912;SDS011;64592;52.168;21.040;2023-02-21T12:01:21;9.18;;;2.10;;
75912;SDS011;64592;52.168;21.040;2023-02-21T12:06:29;6.03;;;2.03;;
75912;SDS011;64592;52.168;21.040;2023-02-21T12:11:50;5.82;;;1.70;;
75912;SDS011;64592;52.168;21.040;2023-02-21T12:17:08;4.28;;;2.00;;
75912;SDS011;64592;52.168;21.040;2023-02-21T12:22:25;5.13;;;1.90;;
75912;SDS011;64592;52.168;21.040;2023-02-21T12:27:37;8.82;;;2.80;;
75912;SDS011;64592;52.168;21.040;2023-02-21T12:32:49;8.10;;;2.58;;
75912;SDS011;64592;52.168;21.040;2023-02-21T12:37:54;7.80;;;2.40;;
75912;SDS011;64592;52.168;21.040;2023-02-21T12:43:10;7.65;;;2.40;;
75912;SDS011;64592;52.168;21.040;2023-02-21T12:48:26;6.43;;;2.15;;
75912;SDS011;64592;52.168;21.040;2023-02-21T12:53:35;8.75;;;2.38;;
75912;SDS011;64592;52.168;21.040;2023-02-21T12:58:42;2.58;;;1.75;;
75912;SDS011;64592;52.168;21.040;2023-02-21T13:03:52;4.50;;;2.20;;
75912;SDS011;64592;52.168;21.040;2023-02-21T13:14:12;5.22;;;2.15;;
75912;SDS011;64592;52.168;21.040;2023-02-21T13:19:19;7.97;;;2.28;;
75912;SDS011;64592;52.168;21.040;2023-02-21T13:24:32;6.53;;;2.92;;
75912;SDS011;64592;52.168;21.040;2023-02-21T13:29:46;4.57;;;2.45;;
75912;SDS011;64592;52.168;21.040;2023-02-21T13:34:53;9.35;;;3.40;;
75912;SDS011;64592;52.168;21.040;2023-02-21T13:40:03;6.07;;;2.75;;
75912;SDS011;64592;52.168;21.040;2023-02-21T13:45:14;12.85;;;4.05;;
75912;SDS011;64592;52.168;21.040;2023-02-21T14:01:18;10.55;;;2.85;;
75912;SDS011;64592;52.168;21.040;2023-02-21T14:06:41;7.43;;;2.60;;
75912;SDS011;64592;52.168;21.040;2023-02-21T14:11:56;7.25;;;3.40;;
75912;SDS011;64592;52.168;21.040;2023-02-21T14:17:04;6.32;;;2.83;;
75912;SDS011;64592;52.168;21.040;2023-02-21T14:22:10;11.32;;;2.85;;
75912;SDS011;64592;52.168;21.040;2023-02-21T14:27:31;10.73;;;2.92;;
75912;SDS011;64592;52.168;21.040;2023-02-21T14:32:35;14.52;;;2.78;;
75912;SDS011;64592;52.168;21.040;2023-02-21T14:37:43;15.10;;;3.45;;
75912;SDS011;64592;52.168;21.040;2023-02-21T14:43:03;9.80;;;2.90;;
75912;SDS011;64592;52.168;21.040;2023-02-21T14:54:06;11.27;;;2.92;;
75912;SDS011;64592;52.168;21.040;2023-02-21T14:59:31;11.95;;;3.63;;
75912;SDS011;64592;52.168;21.040;2023-02-21T15:04:47;8.57;;;3.13;;
75912;SDS011;64592;52.168;21.040;2023-02-21T15:15:25;13.50;;;3.17;;
75912;SDS011;64592;52.168;21.040;2023-02-21T15:20:29;6.60;;;2.58;;
75912;SDS011;64592;52.168;21.040;2023-02-21T15:25:34;12.35;;;4.22;;
75912;SDS011;64592;52.168;21.040;2023-02-21T15:30:37;13.20;;;4.13;;
75912;SDS011;64592;52.168;21.040;2023-02-21T15:35:42;10.73;;;3.42;;
75912;SDS011;64592;52.168;21.040;2023-02-21T15:40:47;17.60;;;3.58;;
75912;SDS011;64592;52.168;21.040;2023-02-21T15:45:51;13.90;;;3.13;;
75912;SDS011;64592;52.168;21.040;2023-02-21T15:50:55;15.82;;;3.30;;
75912;SDS011;64592;52.168;21.040;2023-02-21T15:56:19;15.05;;;3.50;;
75912;SDS011;64592;52.168;21.040;2023-02-21T16:01:22;7.28;;;3.22;;
75912;SDS011;64592;52.168;21.040;2023-02-21T16:06:24;18.15;;;3.72;;
75912;SDS011;64592;52.168;21.040;2023-02-21T16:16:43;15.18;;;4.13;;
75912;SDS011;64592;52.168;21.040;2023-02-21T16:21:47;18.10;;;3.75;;
75912;SDS011;64592;52.168;21.040;2023-02-21T16:27:01;19.70;;;4.03;;
75912;SDS011;64592;52.168;21.040;2023-02-21T16:32:04;11.25;;;3.80;;
75912;SDS011;64592;52.168;21.040;2023-02-21T16:37:09;14.50;;;3.83;;
75912;SDS011;64592;52.168;21.040;2023-02-21T16:42:14;6.53;;;2.40;;
75912;SDS011;64592;52.168;21.040;2023-02-21T16:47:16;11.48;;;4.07;;
75912;SDS011;64592;52.168;21.040;2023-02-21T16:52:19;17.75;;;4.38;;
75912;SDS011;64592;52.168;21.040;2023-02-21T16:57:22;12.70;;;3.40;;
75912;SDS011;64592;52.168;21.040;2023-02-21T17:02:24;14.88;;;3.75;;
75912;SDS011;64592;52.168;21.040;2023-02-21T17:07:25;19.40;;;4.07;;
75912;SDS011;64592;52.168;21.040;2023-02-21T17:12:29;15.07;;;3.75;;
75912;SDS011;64592;52.168;21.040;2023-02-21T17:17:30;13.02;;;3.92;;
75912;SDS011;64592;52.168;21.040;2023-02-21T17:22:32;14.88;;;4.10;;
75912;SDS011;64592;52.168;21.040;2023-02-21T17:27:36;17.48;;;4.43;;
75912;SDS011;64592;52.168;21.040;2023-02-21T17:32:38;13.05;;;4.47;;
75912;SDS011;64592;52.168;21.040;2023-02-21T17:37:40;20.17;;;4.38;;
75912;SDS011;64592;52.168;21.040;2023-02-21T17:42:43;13.18;;;4.03;;
75912;SDS011;64592;52.168;21.040;2023-02-21T17:47:46;16.63;;;4.47;;
75912;SDS011;64592;52.168;21.040;2023-02-21T17:52:47;12.43;;;4.65;;
75912;SDS011;64592;52.168;21.040;2023-02-21T17:57:51;18.13;;;4.63;;
75912;SDS011;64592;52.168;21.040;2023-02-21T18:02:53;16.15;;;4.38;;
75912;SDS011;64592;52.168;21.040;2023-02-21T18:07:56;15.98;;;4.40;;
75912;SDS011;64592;52.168;21.040;2023-02-21T18:12:59;19.00;;;4.47;;
75912;SDS011;64592;52.168;21.040;2023-02-21T18:18:01;11.70;;;3.78;;
75912;SDS011;64592;52.168;21.040;2023-02-21T18:23:04;13.88;;;4.78;;
75912;SDS011;64592;52.168;21.040;2023-02-21T18:28:07;14.10;;;4.57;;
75912;SDS011;64592;52.168;21.040;2023-02-21T18:33:09;13.52;;;3.90;;
75912;SDS011;64592;52.168;21.040;2023-02-21T18:38:11;10.07;;;4.10;;
75912;SDS011;64592;52.168;21.040;2023-02-21T18:43:17;14.13;;;4.18;;
75912;SDS011;64592;52.168;21.040;2023-02-21T18:48:20;22.95;;;4.63;;
75912;SDS011;64592;52.168;21.040;2023-02-21T18:53:23;18.15;;;4.05;;
75912;SDS011;64592;52.168;21.040;2023-02-21T18:58:26;8.93;;;3.55;;
75912;SDS011;64592;52.168;21.040;2023-02-21T19:03:28;18.55;;;4.78;;
75912;SDS011;64592;52.168;21.040;2023-02-21T19:08:30;12.95;;;4.22;;
75912;SDS011;64592;52.168;21.040;2023-02-21T19:13:33;17.50;;;4.47;;
75912;SDS011;64592;52.168;21.040;2023-02-21T19:18:35;11.00;;;4.15;;
75912;SDS011;64592;52.168;21.040;2023-02-21T19:23:36;14.43;;;3.80;;
75912;SDS011;64592;52.168;21.040;2023-02-21T19:28:40;23.98;;;5.18;;
75912;SDS011;64592;52.168;21.040;2023-02-21T19:33:42;16.38;;;3.83;;
75912;SDS011;64592;52.168;21.040;2023-02-21T19:38:44;11.73;;;4.50;;
75912;SDS011;64592;52.168;21.040;2023-02-21T19:43:47;15.82;;;4.38;;
75912;SDS011;64592;52.168;21.040;2023-02-21T19:48:49;13.27;;;4.90;;
75912;SDS011;64592;52.168;21.040;2023-02-21T19:53:52;16.75;;;4.38;;
75912;SDS011;64592;52.168;21.040;2023-02-21T19:58:56;16.05;;;4.50;;
75912;SDS011;64592;52.168;21.040;2023-02-21T20:03:58;11.60;;;4.80;;
75912;SDS011;64592;52.168;21.040;2023-02-21T20:09:01;11.32;;;3.92;;
75912;SDS011;64592;52.168;21.040;2023-02-21T20:14:05;21.27;;;4.93;;
75912;SDS011;64592;52.168;21.040;2023-02-21T20:19:07;14.10;;;4.35;;
75912;SDS011;64592;52.168;21.040;2023-02-21T20:24:10;12.05;;;3.92;;
75912;SDS011;64592;52.168;21.040;2023-02-21T20:29:14;14.35;;;4.28;;
75912;SDS011;64592;52.168;21.040;2023-02-21T20:34:15;16.33;;;4.03;;
75912;SDS011;64592;52.168;21.040;2023-02-21T20:39:18;14.52;;;4.82;;
75912;SDS011;64592;52.168;21.040;2023-02-21T20:44:23;13.20;;;4.93;;
75912;SDS011;64592;52.168;21.040;2023-02-21T20:49:25;15.10;;;4.10;;
75912;SDS011;64592;52.168;21.040;2023-02-21T20:54:27;10.13;;;4.13;;
75912;SDS011;64592;52.168;21.040;2023-02-21T20:59:31;19.38;;;5.35;;
75912;SDS011;64592;52.168;21.040;2023-02-21T21:04:36;21.48;;;5.35;;
75912;SDS011;64592;52.168;21.040;2023-02-21T21:09:39;14.40;;;6.80;;
75912;SDS011;64592;52.168;21.040;2023-02-21T21:14:45;15.63;;;5.20;;
75912;SDS011;64592;52.168;21.040;2023-02-21T21:19:48;17.65;;;4.88;;
75912;SDS011;64592;52.168;21.040;2023-02-21T21:24:52;22.67;;;5.70;;
75912;SDS011;64592;52.168;21.040;2023-02-21T21:29:55;16.95;;;4.35;;
75912;SDS011;64592;52.168;21.040;2023-02-21T21:34:57;16.52;;;4.78;;
75912;SDS011;64592;52.168;21.040;2023-02-21T21:40:02;10.30;;;3.78;;
75912;SDS011;64592;52.168;21.040;2023-02-21T21:45:17;15.13;;;4.78;;
75912;SDS011;64592;52.168;21.040;2023-02-21T21:50:21;13.30;;;3.50;;
75912;SDS011;64592;52.168;21.040;2023-02-21T21:55:24;7.53;;;3.47;;
75912;SDS011;64592;52.168;21.040;2023-02-21T22:00:29;5.00;;;2.95;;
75912;SDS011;64592;52.168;21.040;2023-02-21T22:05:38;11.30;;;3.33;;
75912;SDS011;64592;52.168;21.040;2023-02-21T22:10:42;6.00;;;2.17;;
75912;SDS011;64592;52.168;21.040;2023-02-21T22:15:46;8.75;;;2.60;;
75912;SDS011;64592;52.168;21.040;2023-02-21T22:20:48;10.52;;;4.03;;
75912;SDS011;64592;52.168;21.040;2023-02-21T22:25:50;6.90;;;3.75;;
75912;SDS011;64592;52.168;21.040;2023-02-21T22:30:53;11.10;;;3.97;;
75912;SDS011;64592;52.168;21.040;2023-02-21T22:35:55;17.30;;;4.68;;
75912;SDS011;64592;52.168;21.040;2023-02-21T22:40:57;10.05;;;3.92;;
75912;SDS011;64592;52.168;21.040;2023-02-21T22:46:00;14.15;;;4.32;;
75912;SDS011;64592;52.168;21.040;2023-02-21T22:51:05;18.33;;;5.28;;
75912;SDS011;64592;52.168;21.040;2023-02-21T22:56:10;17.65;;;4.15;;
75912;SDS011;64592;52.168;21.040;2023-02-21T23:01:15;10.30;;;3.92;;
75912;SDS011;64592;52.168;21.040;2023-02-21T23:06:20;11.85;;;4.43;;
75912;SDS011;64592;52.168;21.040;2023-02-21T23:11:22;10.30;;;3.72;;
75912;SDS011;64592;52.168;21.040;2023-02-21T23:16:25;7.28;;;3.60;;
75912;SDS011;64592;52.168;21.040;2023-02-21T23:21:27;13.07;;;3.40;;
75912;SDS011;64592;52.168;21.040;2023-02-21T23:26:29;15.07;;;3.75;;
75912;SDS011;64592;52.168;21.040;2023-02-21T23:31:32;13.23;;;3.47;;
75912;SDS011;64592;52.168;21.040;2023-02-21T23:36:34;10.23;;;3.25;;
75912;SDS011;64592;52.168;21.040;2023-02-21T23:41:38;7.38;;;2.60;;
75912;SDS011;64592;52.168;21.040;2023-02-21T23:46:43;12.25;;;3.70;;
75912;SDS011;64592;52.168;21.040;2023-02-21T23:51:45;7.65;;;3.05;;
75912;SDS011;64592;52.168;21.040;2023-02-21T23:56:47;6.85;;;2.90;;
